createdAt,value
2023-05-11T00:02:00.773Z,98621.00
2023-05-11T00:04:27.974Z,98628.00
2023-05-11T00:06:55.685Z,98624.00
2023-05-11T00:09:22.723Z,98616.00
2023-05-11T00:11:49.666Z,98603.00
2023-05-11T00:14:16.513Z,98605.00
2023-05-11T00:16:43.434Z,98603.00
2023-05-11T00:19:10.340Z,98607.00
2023-05-11T00:21:37.290Z,98605.00
2023-05-11T00:24:04.176Z,98609.00
2023-05-11T00:26:31.057Z,98603.00
2023-05-11T00:28:57.929Z,98606.00
2023-05-11T00:31:24.856Z,98611.00
2023-05-11T00:33:51.736Z,98592.00
2023-05-11T00:36:18.641Z,98606.00
2023-05-11T00:38:45.492Z,98601.00
2023-05-11T00:41:12.362Z,98605.00
2023-05-11T00:43:39.208Z,98591.00
2023-05-11T00:46:06.100Z,98591.00
2023-05-11T00:48:32.998Z,98591.00
2023-05-11T00:51:00.032Z,98593.00
2023-05-11T00:53:26.926Z,98580.00
2023-05-11T00:55:54.420Z,98594.00
2023-05-11T00:58:21.314Z,98594.00
2023-05-11T01:00:48.296Z,98589.00
2023-05-11T01:03:15.475Z,98586.00
2023-05-11T01:05:50.087Z,98591.00
2023-05-11T01:08:25.147Z,98591.00
2023-05-11T01:11:32.058Z,98584.00
2023-05-11T01:14:13.064Z,98597.00
2023-05-11T01:16:40.567Z,98603.00
2023-05-11T01:21:48.724Z,98597.00
2023-05-11T01:24:40.435Z,98590.00
2023-05-11T01:27:28.449Z,98592.00
2023-05-11T01:30:33.853Z,98594.00
2023-05-11T01:33:07.297Z,98593.00
2023-05-11T01:35:35.906Z,98592.00
2023-05-11T01:38:02.799Z,98592.00
2023-05-11T01:40:31.911Z,98594.00
2023-05-11T01:43:04.926Z,98591.00
2023-05-11T01:45:34.484Z,98594.00
2023-05-11T01:48:04.329Z,98604.00
2023-05-11T01:50:31.188Z,98607.00
2023-05-11T01:52:58.096Z,98604.00
2023-05-11T01:55:24.995Z,98606.00
2023-05-11T01:57:53.207Z,98592.00
2023-05-11T02:00:20.403Z,98594.00
2023-05-11T02:02:47.716Z,98577.00
2023-05-11T02:05:22.465Z,98579.00
2023-05-11T02:07:52.978Z,98570.00
2023-05-11T02:10:20.176Z,98588.00
2023-05-11T02:12:47.116Z,98585.00
2023-05-11T02:15:14.017Z,98588.00
2023-05-11T02:17:40.943Z,98585.00
2023-05-11T02:20:08.817Z,98593.00
2023-05-11T02:22:35.988Z,98588.00
2023-05-11T02:25:04.314Z,98595.00
2023-05-11T02:27:31.145Z,98579.00
2023-05-11T02:29:58.601Z,98588.00
2023-05-11T02:32:25.512Z,98592.00
2023-05-11T02:35:00.226Z,98589.00
2023-05-11T02:37:27.073Z,98582.00
2023-05-11T02:39:59.539Z,98579.00
2023-05-11T02:42:27.566Z,98573.00
2023-05-11T02:45:00.997Z,98582.00
2023-05-11T02:47:30.132Z,98572.00
2023-05-11T02:49:58.852Z,98571.00
2023-05-11T02:52:26.228Z,98563.00
2023-05-11T02:54:53.160Z,98571.00
2023-05-11T02:57:20.505Z,98564.00
2023-05-11T02:59:47.408Z,98560.00
2023-05-11T03:02:14.333Z,98564.00
2023-05-11T03:04:41.356Z,98550.00
2023-05-11T03:07:08.658Z,98554.00
2023-05-11T03:09:35.571Z,98548.00
2023-05-11T03:12:03.637Z,98535.00
2023-05-11T03:14:33.074Z,98547.00
2023-05-11T03:17:00.363Z,98550.00
2023-05-11T03:19:30.970Z,98541.00
2023-05-11T03:21:58.938Z,98544.00
2023-05-11T03:24:26.225Z,98546.00
2023-05-11T03:26:54.696Z,98534.00
2023-05-11T03:29:21.597Z,98539.00
2023-05-11T03:31:51.086Z,98517.00
2023-05-11T03:34:18.258Z,98521.00
2023-05-11T03:36:45.711Z,98524.00
2023-05-11T03:39:12.583Z,98523.00
2023-05-11T03:41:39.699Z,98517.00
2023-05-11T03:44:07.295Z,98510.00
2023-05-11T03:46:34.273Z,98510.00
2023-05-11T03:49:01.210Z,98489.00
2023-05-11T03:51:28.156Z,98507.00
2023-05-11T03:53:55.048Z,98494.00
2023-05-11T03:56:22.051Z,98491.00
2023-05-11T03:58:48.945Z,98516.00
2023-05-11T04:01:15.833Z,98503.00
2023-05-11T04:03:53.287Z,98501.00
2023-05-11T04:06:20.487Z,98486.00
2023-05-11T04:08:47.404Z,98480.00
2023-05-11T04:11:14.317Z,98486.00
2023-05-11T04:13:41.260Z,98483.00
2023-05-11T04:16:08.347Z,98484.00
2023-05-11T04:18:35.340Z,98480.00
2023-05-11T04:21:02.299Z,98477.00
2023-05-11T04:23:29.187Z,98465.00
2023-05-11T04:25:56.481Z,98477.00
2023-05-11T04:28:23.584Z,98476.00
2023-05-11T04:30:56.919Z,98459.00
2023-05-11T04:33:24.176Z,98472.00
2023-05-11T04:35:51.999Z,98464.00
2023-05-11T04:38:19.658Z,98477.00
2023-05-11T04:40:46.541Z,98470.00
2023-05-11T04:43:14.299Z,98469.00
2023-05-11T04:45:41.216Z,98473.00
2023-05-11T04:48:08.149Z,98472.00
2023-05-11T04:50:35.861Z,98462.00
2023-05-11T04:53:02.764Z,98468.00
2023-05-11T04:55:29.626Z,98464.00
2023-05-11T04:57:56.533Z,98441.00
2023-05-11T05:00:23.462Z,98352.00
2023-05-11T05:02:50.387Z,98358.00
2023-05-11T05:05:17.808Z,98446.00
2023-05-11T05:07:44.929Z,98256.00
2023-05-11T05:10:11.789Z,98232.00
2023-05-11T05:12:41.811Z,98259.00
2023-05-11T05:15:09.330Z,98243.00
2023-05-11T05:17:36.253Z,98249.00
2023-05-11T05:20:04.481Z,98227.00
2023-05-11T05:22:31.395Z,98232.00
2023-05-11T05:24:58.396Z,98250.00
2023-05-11T05:27:25.371Z,98269.00
2023-05-11T05:29:52.341Z,98254.00
2023-05-11T05:32:19.204Z,98261.00
2023-05-11T05:34:46.120Z,98238.00
2023-05-11T05:37:13.131Z,98255.00
2023-05-11T05:39:40.050Z,98259.00
2023-05-11T05:42:06.964Z,98252.00
2023-05-11T05:44:33.954Z,98258.00
2023-05-11T05:47:00.865Z,98258.00
2023-05-11T05:49:27.751Z,98270.00
2023-05-11T05:51:54.825Z,98263.00
2023-05-11T05:54:21.771Z,98264.00
2023-05-11T05:56:48.734Z,98274.00
2023-05-11T05:59:15.633Z,98272.00
2023-05-11T06:01:42.579Z,98274.00
2023-05-11T06:04:09.557Z,98292.00
2023-05-11T06:06:36.549Z,98304.00
2023-05-11T06:09:03.468Z,98301.00
2023-05-11T06:11:30.365Z,98304.00
2023-05-11T06:13:57.301Z,98310.00
2023-05-11T06:16:24.246Z,98307.00
2023-05-11T06:18:51.237Z,98316.00
2023-05-11T06:21:18.161Z,98326.00
2023-05-11T06:23:45.064Z,98323.00
2023-05-11T06:26:11.956Z,98317.00
2023-05-11T06:28:38.916Z,98337.00
2023-05-11T06:31:05.891Z,98334.00
2023-05-11T06:33:32.790Z,98340.00
2023-05-11T06:36:05.081Z,98344.00
2023-05-11T06:38:32.287Z,98345.00
2023-05-11T06:40:59.217Z,98350.00
2023-05-11T06:43:26.161Z,98353.00
2023-05-11T06:45:53.129Z,98361.00
2023-05-11T06:48:20.059Z,98356.00
2023-05-11T06:50:46.976Z,98366.00
2023-05-11T06:53:14.138Z,98367.00
2023-05-11T06:55:41.112Z,98371.00
2023-05-11T06:58:07.992Z,98373.00
2023-05-11T07:00:34.907Z,98373.00
2023-05-11T07:03:01.862Z,98378.00
2023-05-11T07:05:28.771Z,98387.00
2023-05-11T07:07:55.708Z,98393.00
2023-05-11T07:10:22.669Z,98393.00
2023-05-11T07:12:49.926Z,98401.00
2023-05-11T07:15:16.783Z,98420.00
2023-05-11T07:17:43.720Z,98415.00
2023-05-11T07:20:11.062Z,98417.00
2023-05-11T07:22:38.036Z,98422.00
2023-05-11T07:25:05.391Z,98449.00
2023-05-11T07:27:32.302Z,98434.00
2023-05-11T07:29:59.173Z,98416.00
2023-05-11T07:32:26.197Z,98422.00
2023-05-11T07:34:53.114Z,98442.00
2023-05-11T07:37:20.005Z,98433.00
2023-05-11T07:39:46.918Z,98440.00
2023-05-11T07:42:13.838Z,98432.00
2023-05-11T07:44:40.830Z,98414.00
2023-05-11T07:47:07.751Z,98414.00
2023-05-11T07:49:42.992Z,98409.00
2023-05-11T07:52:11.195Z,98429.00
2023-05-11T07:54:38.181Z,98421.00
2023-05-11T07:57:05.151Z,98418.00
2023-05-11T07:59:32.229Z,98420.00
2023-05-11T08:01:59.186Z,98419.00
2023-05-11T08:04:27.476Z,98414.00
2023-05-11T08:06:54.442Z,98412.00
2023-05-11T08:09:22.493Z,98413.00
2023-05-11T08:11:49.403Z,98404.00
2023-05-11T08:14:16.407Z,98405.00
2023-05-11T08:16:43.332Z,98417.00
2023-05-11T08:19:10.255Z,98409.00
2023-05-11T08:21:37.243Z,98400.00
2023-05-11T08:24:04.340Z,98409.00
2023-05-11T08:26:31.258Z,98401.00
2023-05-11T08:28:58.185Z,98403.00
2023-05-11T08:31:25.098Z,98402.00
2023-05-11T08:33:52.065Z,98401.00
2023-05-11T08:36:18.974Z,98397.00
2023-05-11T08:38:45.848Z,98393.00
2023-05-11T08:41:13.149Z,98391.00
2023-05-11T08:43:40.339Z,98399.00
2023-05-11T08:46:08.514Z,98395.00
2023-05-11T08:48:35.715Z,98392.00
2023-05-11T08:51:02.808Z,98396.00
2023-05-11T08:53:29.708Z,98387.00
2023-05-11T08:55:59.759Z,98389.00
2023-05-11T08:58:29.996Z,98390.00
2023-05-11T09:00:56.912Z,98382.00
2023-05-11T09:03:23.791Z,98381.00
2023-05-11T09:05:50.792Z,98389.00
2023-05-11T09:08:18.412Z,98385.00
2023-05-11T09:10:45.345Z,98403.00
2023-05-11T09:13:12.382Z,98381.00
2023-05-11T09:15:39.459Z,98374.00
2023-05-11T09:18:06.527Z,98389.00
2023-05-11T09:20:34.156Z,98384.00
2023-05-11T09:23:01.183Z,98380.00
2023-05-11T09:25:30.353Z,98376.00
2023-05-11T09:27:58.040Z,98381.00
2023-05-11T09:30:24.949Z,98381.00
2023-05-11T09:32:53.729Z,98375.00
2023-05-11T09:35:34.457Z,98378.00
2023-05-11T09:38:11.821Z,98387.00
2023-05-11T09:40:56.920Z,98369.00
2023-05-11T09:43:26.598Z,98353.00
2023-05-11T09:45:58.506Z,98367.00
2023-05-11T09:48:28.108Z,98361.00
2023-05-11T09:51:06.102Z,98355.00
2023-05-11T09:53:40.615Z,98356.00
2023-05-11T09:56:07.725Z,98356.00
2023-05-11T09:58:56.167Z,98349.00
2023-05-11T10:01:31.485Z,98353.00
2023-05-11T10:04:13.415Z,98352.00
2023-05-11T10:06:51.313Z,98344.00
2023-05-11T10:09:19.350Z,98352.00
2023-05-11T10:11:46.632Z,98349.00
2023-05-11T10:14:14.018Z,98341.00
2023-05-11T10:16:42.377Z,98345.00
2023-05-11T10:19:09.638Z,98351.00
2023-05-11T10:21:36.607Z,98335.00
2023-05-11T10:24:04.171Z,98336.00
2023-05-11T10:26:31.543Z,98348.00
2023-05-11T10:29:00.837Z,98340.00
2023-05-11T10:31:28.803Z,98342.00
2023-05-11T10:33:55.721Z,98332.00
2023-05-11T10:36:24.021Z,98332.00
2023-05-11T10:38:50.925Z,98328.00
2023-05-11T10:42:02.388Z,98340.00
2023-05-11T10:44:56.558Z,98335.00
2023-05-11T10:47:56.869Z,98332.00
2023-05-11T10:51:07.914Z,98328.00
2023-05-11T10:53:50.584Z,98319.00
2023-05-11T10:56:49.415Z,98320.00
2023-05-11T10:59:53.824Z,98315.00
2023-05-11T11:02:20.717Z,98310.00
2023-05-11T11:04:49.070Z,98303.00
2023-05-11T11:07:16.729Z,98291.00
2023-05-11T11:10:13.019Z,98294.00
2023-05-11T11:12:39.962Z,98293.00
2023-05-11T11:15:07.860Z,98285.00
2023-05-11T11:17:36.120Z,98291.00
2023-05-11T11:20:06.348Z,98282.00
2023-05-11T11:22:36.386Z,98273.00
2023-05-11T11:25:10.102Z,98280.00
2023-05-11T11:27:49.150Z,98296.00
2023-05-11T11:30:16.817Z,98307.00
2023-05-11T11:32:45.510Z,98283.00
2023-05-11T11:35:41.082Z,98297.00
2023-05-11T11:38:16.794Z,98295.00
2023-05-11T11:40:51.102Z,98271.00
2023-05-11T11:43:23.917Z,98302.00
2023-05-11T11:45:56.693Z,98287.00
2023-05-11T11:48:37.594Z,98270.00
2023-05-11T11:51:12.769Z,98267.00
2023-05-11T11:53:39.725Z,98262.00
2023-05-11T11:56:07.755Z,98250.00
2023-05-11T11:58:43.765Z,98284.00
2023-05-11T12:01:15.740Z,98254.00
2023-05-11T12:03:44.383Z,98260.00
2023-05-11T12:06:11.726Z,98254.00
2023-05-11T12:08:39.684Z,98246.00
2023-05-11T12:11:07.153Z,98246.00
2023-05-11T12:13:34.690Z,98238.00
2023-05-11T12:16:11.604Z,98259.00
2023-05-11T12:18:39.740Z,98263.00
2023-05-11T12:21:06.918Z,98234.00
2023-05-11T12:23:33.890Z,98245.00
2023-05-11T12:26:07.263Z,98250.00
2023-05-11T12:28:34.304Z,98245.00
2023-05-11T12:31:01.353Z,98254.00
2023-05-11T12:33:28.313Z,98251.00
2023-05-11T12:35:56.551Z,98244.00
2023-05-11T12:38:23.661Z,98250.00
2023-05-11T12:40:52.820Z,98240.00
2023-05-11T12:43:21.518Z,98240.00
2023-05-11T12:45:48.635Z,98244.00
2023-05-11T12:48:15.724Z,98240.00
2023-05-11T12:50:46.390Z,98261.00
2023-05-11T12:53:20.077Z,98262.00
2023-05-11T12:55:57.987Z,98269.00
2023-05-11T12:58:24.989Z,98288.00
2023-05-11T13:00:58.926Z,98294.00
2023-05-11T13:03:31.339Z,98290.00
2023-05-11T13:06:08.034Z,98298.00
2023-05-11T13:08:39.204Z,98327.00
2023-05-11T13:11:25.968Z,98306.00
2023-05-11T13:13:54.132Z,98310.00
2023-05-11T13:16:28.994Z,98290.00
2023-05-11T13:19:03.937Z,98301.00
2023-05-11T13:21:31.515Z,98300.00
2023-05-11T13:23:58.742Z,98319.00
2023-05-11T13:26:26.762Z,98330.00
2023-05-11T13:29:08.831Z,98320.00
2023-05-11T13:31:48.624Z,98353.00
2023-05-11T13:34:15.847Z,98372.00
2023-05-11T13:36:42.917Z,98376.00
2023-05-11T13:39:09.913Z,98384.00
2023-05-11T13:41:37.008Z,98377.00
2023-05-11T13:44:04.225Z,98377.00
2023-05-11T13:46:31.157Z,98362.00
2023-05-11T13:48:58.088Z,98365.00
2023-05-11T13:51:25.005Z,98367.00
2023-05-11T13:53:51.920Z,98365.00
2023-05-11T13:56:18.810Z,98372.00
2023-05-11T13:58:45.756Z,98353.00
2023-05-11T14:01:12.662Z,98364.00
2023-05-11T14:03:40.026Z,98348.00
2023-05-11T14:06:07.140Z,98348.00
2023-05-11T14:08:34.069Z,98346.00
2023-05-11T14:11:00.978Z,98323.00
2023-05-11T14:13:27.835Z,98330.00
2023-05-11T14:15:54.745Z,98311.00
2023-05-11T14:18:22.272Z,98308.00
2023-05-11T14:20:49.270Z,98286.00
2023-05-11T14:23:16.233Z,98261.00
2023-05-11T14:25:43.111Z,98270.00
2023-05-11T14:28:10.047Z,98257.00
2023-05-11T14:30:36.930Z,98252.00
2023-05-11T14:33:03.874Z,98265.00
2023-05-11T14:35:30.780Z,98258.00
2023-05-11T14:37:57.697Z,98249.00
2023-05-11T14:40:24.653Z,98247.00
2023-05-11T14:42:51.506Z,98251.00
2023-05-11T14:45:18.772Z,98249.00
2023-05-11T14:47:45.838Z,98250.00
2023-05-11T14:50:12.758Z,98250.00
2023-05-11T14:52:39.658Z,98249.00
2023-05-11T14:55:07.369Z,98250.00
2023-05-11T14:57:34.238Z,98243.00
2023-05-11T15:00:01.180Z,98234.00
2023-05-11T15:02:28.845Z,98237.00
2023-05-11T15:04:55.831Z,98249.00
2023-05-11T15:07:22.789Z,98244.00
2023-05-11T15:09:49.772Z,98241.00
2023-05-11T15:12:16.635Z,98254.00
2023-05-11T15:14:43.552Z,98248.00
2023-05-11T15:17:10.418Z,98245.00
2023-05-11T15:19:37.351Z,98230.00
2023-05-11T15:22:04.915Z,98239.00
2023-05-11T15:24:31.826Z,98235.00
2023-05-11T15:26:58.798Z,98239.00
2023-05-11T15:29:25.800Z,98228.00
2023-05-11T15:31:52.769Z,98234.00
2023-05-11T15:34:19.654Z,98242.00
2023-05-11T15:36:46.602Z,98247.00
2023-05-11T15:39:13.468Z,98243.00
2023-05-11T15:41:40.349Z,98246.00
2023-05-11T15:44:07.285Z,98253.00
2023-05-11T15:46:38.353Z,98233.00
2023-05-11T15:49:05.250Z,98243.00
2023-05-11T15:51:32.222Z,98241.00
2023-05-11T15:53:59.083Z,98243.00
2023-05-11T15:56:26.005Z,98239.00
2023-05-11T15:58:52.850Z,98250.00
2023-05-11T16:01:19.761Z,98244.00
2023-05-11T16:03:46.860Z,98239.00
2023-05-11T16:06:14.141Z,98243.00
2023-05-11T16:08:41.069Z,98245.00
2023-05-11T16:11:08.031Z,98241.00
2023-05-11T16:13:34.916Z,98246.00
2023-05-11T16:16:01.840Z,98268.00
2023-05-11T16:18:28.843Z,98261.00
2023-05-11T16:20:55.838Z,98257.00
2023-05-11T16:23:22.742Z,98258.00
2023-05-11T16:25:49.655Z,98279.00
2023-05-11T16:28:16.536Z,98283.00
2023-05-11T16:30:43.426Z,98315.00
2023-05-11T16:33:10.441Z,98324.00
2023-05-11T16:35:37.372Z,98328.00
2023-05-11T16:38:04.264Z,98335.00
2023-05-11T16:40:31.172Z,98347.00
2023-05-11T16:42:58.158Z,98345.00
2023-05-11T16:45:25.099Z,98344.00
2023-05-11T16:47:52.193Z,98348.00
2023-05-11T16:50:19.292Z,98355.00
2023-05-11T16:52:46.362Z,98359.00
2023-05-11T16:55:13.615Z,98364.00
2023-05-11T16:57:40.527Z,98349.00
2023-05-11T17:00:09.552Z,98370.00
2023-05-11T17:02:36.592Z,98374.00
2023-05-11T17:05:03.787Z,98361.00
2023-05-11T17:07:30.712Z,98377.00
2023-05-11T17:09:57.773Z,98384.00
2023-05-11T17:12:24.767Z,98379.00
2023-05-11T17:14:51.734Z,98390.00
2023-05-11T17:17:18.673Z,98384.00
2023-05-11T17:19:45.582Z,98386.00
2023-05-11T17:22:13.106Z,98390.00
2023-05-11T17:24:40.225Z,98407.00
2023-05-11T17:27:07.326Z,98406.00
2023-05-11T17:29:34.294Z,98411.00
2023-05-11T17:32:01.303Z,98405.00
2023-05-11T17:34:28.804Z,98400.00
2023-05-11T17:36:56.311Z,98401.00
2023-05-11T17:39:23.211Z,98413.00
2023-05-11T17:41:50.116Z,98419.00
2023-05-11T17:44:17.047Z,98423.00
2023-05-11T17:46:43.937Z,98416.00
2023-05-11T17:49:10.876Z,98424.00
2023-05-11T17:51:37.783Z,98434.00
2023-05-11T17:54:04.830Z,98433.00
2023-05-11T17:56:31.812Z,98430.00
2023-05-11T17:58:58.681Z,98434.00
2023-05-11T18:01:25.653Z,98431.00
2023-05-11T18:03:52.764Z,98425.00
2023-05-11T18:06:19.803Z,98429.00
2023-05-11T18:08:46.760Z,98437.00
2023-05-11T18:11:13.844Z,98422.00
2023-05-11T18:13:40.816Z,98449.00
2023-05-11T18:16:07.930Z,98449.00
2023-05-11T18:18:34.957Z,98463.00
2023-05-11T18:21:06.182Z,98469.00
2023-05-11T18:23:33.301Z,98470.00
2023-05-11T18:26:00.231Z,98470.00
2023-05-11T18:28:27.182Z,98472.00
2023-05-11T18:30:54.130Z,98457.00
2023-05-11T18:33:21.165Z,98471.00
2023-05-11T18:35:48.173Z,98469.00
2023-05-11T18:38:15.067Z,98463.00
2023-05-11T18:40:42.045Z,98469.00
2023-05-11T18:43:09.449Z,98471.00
2023-05-11T18:45:36.304Z,98479.00
2023-05-11T18:48:03.681Z,98475.00
2023-05-11T18:50:31.100Z,98484.00
2023-05-11T18:53:19.898Z,98483.00
2023-05-11T18:55:54.076Z,98474.00
2023-05-11T18:58:25.908Z,98483.00
2023-05-11T19:00:54.546Z,98479.00
2023-05-11T19:03:23.442Z,98492.00
2023-05-11T19:05:52.215Z,98490.00
2023-05-11T19:08:20.865Z,98503.00
2023-05-11T19:10:49.726Z,98508.00
2023-05-11T19:13:16.764Z,98510.00
2023-05-11T19:15:45.513Z,98511.00
2023-05-11T19:18:25.322Z,98519.00
2023-05-11T19:20:52.711Z,98516.00
2023-05-11T19:23:19.667Z,98528.00
2023-05-11T19:25:46.614Z,98536.00
2023-05-11T19:28:13.620Z,98542.00
2023-05-11T19:30:40.530Z,98558.00
2023-05-11T19:33:07.469Z,98561.00
2023-05-11T19:35:34.423Z,98565.00
2023-05-11T19:38:01.335Z,98560.00
2023-05-11T19:40:45.338Z,98552.00
2023-05-11T19:43:13.518Z,98548.00
2023-05-11T19:45:40.572Z,98564.00
2023-05-11T19:48:07.534Z,98554.00
2023-05-11T19:50:34.531Z,98563.00
2023-05-11T19:53:01.432Z,98558.00
2023-05-11T19:55:28.387Z,98551.00
2023-05-11T19:57:55.294Z,98549.00
2023-05-11T20:00:22.317Z,98548.00
2023-05-11T20:02:49.368Z,98541.00
2023-05-11T20:05:16.371Z,98552.00
2023-05-11T20:07:43.385Z,98565.00
2023-05-11T20:10:10.525Z,98566.00
2023-05-11T20:12:37.487Z,98566.00
2023-05-11T20:15:08.325Z,98572.00
2023-05-11T20:17:35.568Z,98584.00
2023-05-11T20:20:02.909Z,98577.00
2023-05-11T20:22:31.233Z,98582.00
2023-05-11T20:24:58.125Z,98585.00
2023-05-11T20:27:25.035Z,98584.00
2023-05-11T20:29:51.935Z,98587.00
2023-05-11T20:32:18.876Z,98588.00
2023-05-11T20:34:45.760Z,98599.00
2023-05-11T20:37:12.645Z,98595.00
2023-05-11T20:39:39.572Z,98591.00
2023-05-11T20:42:06.610Z,98582.00
2023-05-11T20:44:33.506Z,98595.00
2023-05-11T20:47:00.426Z,98595.00
2023-05-11T20:49:38.289Z,98592.00
2023-05-11T20:52:07.193Z,98591.00
2023-05-11T20:54:34.094Z,98588.00
2023-05-11T20:57:04.283Z,98597.00
2023-05-11T21:02:02.019Z,98599.00
2023-05-11T21:04:28.914Z,98594.00
2023-05-11T21:06:55.907Z,98595.00
2023-05-11T21:09:22.773Z,98588.00
2023-05-11T21:11:49.668Z,98582.00
2023-05-11T21:14:16.576Z,98595.00
2023-05-11T21:16:43.587Z,98589.00
2023-05-11T21:19:10.592Z,98587.00
2023-05-11T21:21:38.018Z,98580.00
2023-05-11T21:24:05.080Z,98580.00
2023-05-11T21:26:32.023Z,98581.00
2023-05-11T21:28:58.948Z,98583.00
2023-05-11T21:31:26.034Z,98589.00
2023-05-11T21:33:53.090Z,98595.00
2023-05-11T21:36:19.954Z,98585.00
2023-05-11T21:38:46.881Z,98583.00
2023-05-11T21:41:13.809Z,98578.00
2023-05-11T21:43:40.821Z,98588.00
2023-05-11T21:46:07.777Z,98592.00
2023-05-11T21:48:34.740Z,98580.00
2023-05-11T21:51:01.656Z,98588.00
2023-05-11T21:53:28.676Z,98589.00
2023-05-11T21:55:55.540Z,98582.00
2023-05-11T21:58:22.517Z,98588.00
2023-05-11T22:00:49.442Z,98580.00
2023-05-11T22:03:16.414Z,98580.00
2023-05-11T22:05:43.449Z,98585.00
2023-05-11T22:08:15.070Z,98576.00
2023-05-11T22:10:43.165Z,98590.00
2023-05-11T22:13:10.081Z,98585.00
2023-05-11T22:15:37.047Z,98589.00
2023-05-11T22:18:04.136Z,98594.00
2023-05-11T22:20:31.288Z,98592.00
2023-05-11T22:22:58.247Z,98584.00
2023-05-11T22:25:25.172Z,98586.00
2023-05-11T22:27:52.063Z,98593.00
2023-05-11T22:30:19.457Z,98581.00
2023-05-11T22:32:46.668Z,98600.00
2023-05-11T22:35:13.751Z,98606.00
2023-05-11T22:37:40.677Z,98600.00
2023-05-11T22:40:08.606Z,98595.00
2023-05-11T22:42:35.654Z,98604.00
2023-05-11T22:45:02.637Z,98602.00
2023-05-11T22:47:29.688Z,98589.00
2023-05-11T22:49:56.736Z,98600.00
2023-05-11T22:52:23.808Z,98600.00
2023-05-11T22:54:54.558Z,98592.00
2023-05-11T22:57:21.553Z,98591.00
2023-05-11T22:59:48.481Z,98593.00
2023-05-11T23:02:15.503Z,98594.00
2023-05-11T23:04:42.448Z,98594.00
2023-05-11T23:07:09.442Z,98593.00
2023-05-11T23:09:36.313Z,98594.00
2023-05-11T23:12:03.436Z,98595.00
2023-05-11T23:14:30.436Z,98595.00
2023-05-11T23:16:57.386Z,98592.00
2023-05-11T23:19:24.307Z,98578.00
2023-05-11T23:21:51.207Z,98587.00
2023-05-11T23:24:18.070Z,98597.00
2023-05-11T23:26:44.978Z,98584.00
2023-05-11T23:29:11.886Z,98589.00
2023-05-11T23:31:38.901Z,98579.00
2023-05-11T23:34:05.847Z,98574.00
2023-05-11T23:36:32.808Z,98589.00
2023-05-11T23:38:59.766Z,98568.00
2023-05-11T23:41:26.656Z,98583.00
2023-05-11T23:43:53.741Z,98584.00
2023-05-11T23:46:20.641Z,98583.00
2023-05-11T23:48:48.113Z,98578.00
2023-05-11T23:51:15.025Z,98594.00
2023-05-11T23:53:42.051Z,98601.00
2023-05-11T23:56:08.935Z,98589.00
2023-05-11T23:58:35.829Z,98583.00
